createdAt,value
2019-04-16T00:01:03.593Z,7.30
2019-04-16T00:06:31.979Z,7.10
2019-04-16T00:12:00.107Z,6.90
2019-04-16T00:17:06.016Z,6.80
2019-04-16T00:22:23.233Z,6.60
2019-04-16T00:27:29.492Z,6.40
2019-04-16T00:32:38.071Z,6.10
2019-04-16T00:38:01.682Z,5.90
2019-04-16T00:43:07.354Z,5.90
2019-04-16T00:48:13.075Z,5.80
2019-04-16T00:53:18.952Z,5.70
2019-04-16T00:58:25.772Z,5.60
2019-04-16T01:03:31.584Z,5.50
2019-04-16T01:08:53.561Z,5.40
2019-04-16T01:13:47.927Z,5.20
2019-04-16T01:18:53.818Z,5.10
2019-04-16T01:23:59.974Z,5.10
2019-04-16T01:29:11.979Z,5.00
2019-04-16T01:34:27.056Z,4.90
2019-04-16T01:39:33.817Z,4.90
2019-04-16T01:44:39.937Z,4.70
2019-04-16T01:49:45.811Z,4.70
2019-04-16T01:54:54.958Z,4.80
2019-04-16T02:00:00.022Z,4.60
2019-04-16T02:05:11.732Z,4.50
2019-04-16T02:10:45.899Z,4.40
2019-04-16T02:15:53.339Z,4.20
2019-04-16T02:21:10.508Z,4.00
2019-04-16T02:26:15.218Z,4.20
2019-04-16T02:31:21.593Z,4.20
2019-04-16T02:36:34.933Z,4.10
2019-04-16T02:42:21.396Z,4.10
2019-04-16T02:47:27.443Z,4.10
2019-04-16T02:59:31.676Z,3.90
2019-04-16T03:04:51.846Z,3.90
2019-04-16T03:10:01.403Z,3.80
2019-04-16T03:15:09.015Z,3.80
2019-04-16T03:20:16.298Z,3.70
2019-04-16T03:25:22.192Z,3.60
2019-04-16T03:31:09.399Z,3.70
2019-04-16T03:37:16.425Z,3.70
2019-04-16T03:42:29.165Z,3.70
2019-04-16T03:47:35.523Z,3.70
2019-04-16T03:52:45.792Z,3.60
2019-04-16T03:57:50.151Z,3.50
2019-04-16T04:02:56.040Z,3.50
2019-04-16T04:08:02.231Z,3.40
2019-04-16T04:13:08.395Z,3.40
2019-04-16T04:18:14.269Z,3.40
2019-04-16T04:23:20.892Z,3.30
2019-04-16T04:28:29.035Z,3.20
2019-04-16T04:33:54.197Z,3.20
2019-04-16T04:39:09.905Z,3.20
2019-04-16T04:44:14.850Z,3.30
2019-04-16T04:49:30.052Z,3.20
2019-04-16T04:54:43.012Z,3.20
2019-04-16T04:59:50.225Z,3.30
2019-04-16T05:05:15.530Z,3.30
2019-04-16T05:43:05.547Z,4.70
2019-04-16T05:54:54.028Z,5.40
2019-04-16T06:01:02.203Z,5.70
2019-04-16T06:06:23.272Z,6.00
2019-04-16T06:11:49.241Z,6.30
2019-04-16T06:17:32.870Z,6.60
2019-04-16T06:23:07.438Z,6.70
2019-04-16T06:28:23.783Z,6.90
2019-04-16T06:33:57.687Z,7.00
2019-04-16T06:39:20.994Z,7.20
2019-04-16T06:44:30.089Z,7.10
2019-04-16T06:50:04.650Z,7.30
2019-04-16T06:55:42.911Z,7.60
2019-04-16T07:01:06.851Z,7.60
2019-04-16T07:06:29.528Z,7.80
2019-04-16T07:12:22.806Z,8.10
2019-04-16T07:17:32.871Z,8.30
2019-04-16T07:22:38.025Z,8.50
2019-04-16T07:28:18.205Z,8.60
2019-04-16T07:33:41.905Z,8.50
2019-04-16T07:38:59.533Z,8.20
2019-04-16T07:44:14.990Z,8.10
2019-04-16T07:49:37.987Z,8.40
2019-04-16T07:55:17.959Z,8.20
2019-04-16T08:00:23.915Z,8.20
2019-04-16T08:05:31.590Z,8.50
2019-04-16T08:10:37.392Z,9.10
2019-04-16T08:15:42.982Z,9.40
2019-04-16T08:21:00.323Z,9.80
2019-04-16T08:26:03.475Z,10.30
2019-04-16T08:31:10.499Z,10.70
2019-04-16T08:36:12.725Z,11.40
2019-04-16T08:41:21.123Z,11.60
2019-04-16T08:46:28.328Z,11.50
2019-04-16T08:51:39.106Z,11.30
2019-04-16T08:56:45.746Z,11.00
2019-04-16T09:01:54.537Z,11.00
2019-04-16T09:07:11.146Z,11.40
2019-04-16T09:12:09.800Z,11.80
2019-04-16T09:17:19.653Z,12.30
2019-04-16T09:22:26.794Z,12.50
2019-04-16T09:27:37.641Z,12.70
2019-04-16T09:32:46.560Z,13.00
2019-04-16T09:38:14.183Z,13.10
2019-04-16T09:43:23.017Z,13.60
2019-04-16T09:48:34.499Z,14.00
2019-04-16T09:53:40.101Z,14.10
2019-04-16T09:58:45.279Z,14.40
2019-04-16T10:03:54.245Z,14.80
2019-04-16T10:09:02.393Z,14.60
2019-04-16T10:14:08.414Z,13.90
2019-04-16T10:19:14.726Z,13.80
2019-04-16T10:24:43.562Z,13.80
2019-04-16T10:29:49.571Z,13.70
2019-04-16T10:34:55.956Z,13.60
2019-04-16T10:40:30.040Z,13.60
2019-04-16T10:46:13.555Z,13.70
2019-04-16T10:51:38.358Z,14.50
2019-04-16T10:57:10.482Z,15.10
2019-04-16T11:02:38.466Z,14.80
2019-04-16T11:07:45.443Z,15.40
2019-04-16T11:12:51.338Z,15.30
2019-04-16T11:17:57.446Z,15.50
2019-04-16T11:23:06.850Z,16.10
2019-04-16T11:28:14.160Z,18.00
2019-04-16T11:33:19.863Z,18.80
2019-04-16T11:38:25.741Z,21.20
2019-04-16T11:43:31.550Z,23.30
2019-04-16T11:48:38.173Z,22.30
2019-04-16T11:53:44.363Z,23.50
2019-04-16T11:58:50.154Z,23.40
2019-04-16T12:04:04.162Z,22.90
2019-04-16T12:09:27.683Z,22.50
2019-04-16T12:14:53.597Z,23.00
2019-04-16T12:20:36.949Z,24.40
2019-04-16T12:26:00.598Z,23.20
2019-04-16T12:31:12.097Z,22.80
2019-04-16T12:36:34.960Z,24.20
2019-04-16T12:42:00.144Z,23.80
2019-04-16T12:47:22.451Z,24.10
2019-04-16T12:52:51.926Z,26.30
2019-04-16T12:58:09.703Z,27.20
2019-04-16T13:03:46.342Z,25.40
2019-04-16T13:09:09.874Z,24.20
2019-04-16T13:14:33.223Z,22.60
2019-04-16T13:20:03.820Z,21.80
2019-04-16T13:25:40.992Z,20.50
2019-04-16T13:30:48.632Z,20.00
2019-04-16T13:35:54.661Z,21.10
2019-04-16T13:41:02.189Z,21.30
2019-04-16T13:46:08.402Z,21.20
2019-04-16T13:51:18.987Z,20.80
2019-04-16T13:56:40.386Z,20.60
2019-04-16T14:01:51.287Z,21.00
2019-04-16T14:06:57.882Z,22.50
2019-04-16T14:12:05.337Z,23.30
2019-04-16T14:17:17.682Z,23.40
2019-04-16T14:22:22.673Z,22.80
2019-04-16T14:27:28.695Z,22.80
2019-04-16T14:32:34.723Z,21.00
2019-04-16T14:37:47.474Z,20.60
2019-04-16T14:42:57.579Z,20.80
2019-04-16T14:48:07.606Z,20.60
2019-04-16T14:53:13.575Z,20.80
2019-04-16T14:58:39.868Z,20.80
2019-04-16T15:04:11.501Z,20.70
2019-04-16T15:09:41.754Z,21.20
2019-04-16T15:14:52.998Z,20.60
2019-04-16T15:20:17.800Z,20.00
2019-04-16T15:25:30.645Z,18.90
2019-04-16T15:31:02.827Z,18.60
2019-04-16T15:36:12.460Z,18.70
2019-04-16T15:41:34.383Z,19.10
2019-04-16T15:46:59.269Z,19.20
2019-04-16T15:52:23.446Z,18.70
2019-04-16T15:57:50.297Z,18.30
2019-04-16T16:03:14.030Z,18.40
2019-04-16T16:09:24.540Z,18.20
2019-04-16T16:14:34.685Z,18.20
2019-04-16T16:19:43.894Z,17.80
2019-04-16T16:24:58.253Z,17.40
2019-04-16T16:30:37.282Z,17.10
2019-04-16T16:35:58.751Z,16.80
2019-04-16T16:40:58.393Z,16.60
2019-04-16T16:46:22.006Z,16.20
2019-04-16T16:51:28.158Z,16.10
2019-04-16T16:56:44.899Z,16.00
2019-04-16T17:02:18.694Z,16.20
2019-04-16T17:07:24.564Z,16.00
2019-04-16T17:12:31.592Z,15.80
2019-04-16T17:17:38.105Z,15.70
2019-04-16T17:22:45.605Z,15.50
2019-04-16T17:27:52.063Z,15.40
2019-04-16T17:32:58.319Z,15.30
2019-04-16T17:38:06.583Z,15.20
2019-04-16T17:43:17.835Z,15.00
2019-04-16T17:48:48.185Z,14.90
2019-04-16T17:54:13.942Z,14.70
2019-04-16T17:59:34.796Z,14.60
2019-04-16T18:05:12.778Z,14.50
2019-04-16T18:21:29.616Z,14.30
2019-04-16T18:27:15.784Z,14.30
2019-04-16T18:47:18.869Z,14.10
2019-04-16T18:53:29.404Z,14.00
2019-04-16T18:59:55.154Z,14.10
2019-04-16T19:12:17.364Z,13.90
2019-04-16T19:17:25.542Z,13.60
2019-04-16T19:22:38.593Z,13.30
2019-04-16T19:27:48.759Z,13.10
2019-04-16T19:33:01.018Z,12.90
2019-04-16T19:38:07.703Z,12.80
2019-04-16T19:43:14.159Z,12.60
2019-04-16T19:48:34.723Z,12.20
2019-04-16T19:53:34.857Z,12.00
2019-04-16T19:58:44.285Z,11.70
2019-04-16T20:03:52.056Z,11.60
2019-04-16T20:08:58.393Z,11.50
2019-04-16T20:14:06.103Z,11.40
2019-04-16T20:19:14.364Z,11.30
2019-04-16T20:24:21.645Z,11.30
2019-04-16T20:29:30.463Z,11.30
2019-04-16T20:34:38.087Z,11.10
2019-04-16T20:39:46.070Z,11.10
2019-04-16T20:44:53.605Z,11.10
2019-04-16T20:50:03.940Z,11.20
2019-04-16T20:55:15.755Z,11.20
2019-04-16T21:00:26.743Z,11.10
2019-04-16T21:05:36.579Z,11.00
2019-04-16T21:10:45.560Z,11.00
2019-04-16T21:15:57.362Z,11.00
2019-04-16T21:21:03.147Z,10.90
2019-04-16T21:26:12.118Z,10.90
2019-04-16T21:31:24.563Z,10.90
2019-04-16T21:36:51.547Z,10.80
2019-04-16T21:42:02.423Z,10.80
2019-04-16T21:47:07.633Z,10.80
2019-04-16T21:52:17.108Z,10.80
2019-04-16T21:57:25.868Z,10.80
2019-04-16T22:02:42.778Z,10.80
2019-04-16T22:07:49.706Z,10.70
2019-04-16T22:12:58.213Z,10.80
2019-04-16T22:18:09.103Z,10.80
2019-04-16T22:23:19.021Z,10.70
2019-04-16T22:28:25.015Z,10.60
2019-04-16T22:33:32.042Z,10.50
2019-04-16T22:38:39.995Z,10.50
2019-04-16T22:44:04.515Z,10.50
2019-04-16T22:49:10.715Z,10.50
2019-04-16T22:54:20.892Z,10.30
2019-04-16T22:59:39.075Z,10.40
2019-04-16T23:04:45.491Z,10.40
2019-04-16T23:09:52.319Z,10.40
2019-04-16T23:14:59.586Z,10.40
2019-04-16T23:20:06.024Z,10.20
2019-04-16T23:25:11.910Z,10.20
2019-04-16T23:30:19.253Z,10.10
2019-04-16T23:35:25.285Z,10.00
2019-04-16T23:40:33.291Z,9.90
2019-04-16T23:45:58.136Z,9.90
2019-04-16T23:51:09.063Z,9.90
2019-04-16T23:56:41.137Z,9.80
